createdAt,value
2019-02-20T00:02:24.987Z,11.73
2019-02-20T00:04:53.207Z,10.25
2019-02-20T00:07:21.367Z,8.30
2019-02-20T00:09:49.532Z,11.55
2019-02-20T00:12:18.112Z,16.35
2019-02-20T00:14:46.294Z,18.52
2019-02-20T00:17:14.489Z,14.38
2019-02-20T00:19:42.668Z,11.80
2019-02-20T00:22:10.875Z,11.15
2019-02-20T00:24:39.137Z,14.35
2019-02-20T00:27:07.338Z,11.03
2019-02-20T00:29:35.699Z,8.43
2019-02-20T00:32:04.014Z,11.30
2019-02-20T00:34:32.139Z,12.33
2019-02-20T00:37:00.387Z,12.20
2019-02-20T00:39:28.621Z,18.70
2019-02-20T00:41:56.805Z,17.12
2019-02-20T00:44:43.967Z,7.75
2019-02-20T00:47:31.269Z,12.90
2019-02-20T00:49:59.623Z,16.00
2019-02-20T00:52:52.257Z,14.28
2019-02-20T00:55:20.423Z,7.90
2019-02-20T00:57:48.590Z,7.15
2019-02-20T01:00:16.883Z,18.02
2019-02-20T01:02:45.152Z,13.53
2019-02-20T01:05:13.365Z,6.37
2019-02-20T01:07:41.540Z,11.95
2019-02-20T01:10:09.776Z,10.40
2019-02-20T01:12:37.990Z,6.75
2019-02-20T01:15:06.760Z,12.95
2019-02-20T01:17:35.038Z,6.62
2019-02-20T01:20:03.213Z,7.60
2019-02-20T01:22:31.410Z,12.35
2019-02-20T01:24:59.589Z,10.55
2019-02-20T01:27:28.182Z,9.90
2019-02-20T01:29:56.349Z,6.08
2019-02-20T01:32:24.539Z,10.32
2019-02-20T01:34:52.701Z,10.45
2019-02-20T01:37:20.850Z,8.80
2019-02-20T01:39:49.620Z,9.80
2019-02-20T01:42:17.833Z,16.40
2019-02-20T01:44:46.021Z,9.13
2019-02-20T01:47:14.175Z,7.60
2019-02-20T01:49:42.373Z,7.03
2019-02-20T01:52:10.643Z,17.62
2019-02-20T01:54:38.828Z,11.03
2019-02-20T01:57:07.131Z,9.25
2019-02-20T01:59:35.219Z,12.85
2019-02-20T02:02:03.490Z,10.78
2019-02-20T02:04:31.719Z,10.00
2019-02-20T02:06:59.897Z,5.65
2019-02-20T02:09:28.115Z,15.98
2019-02-20T02:11:56.310Z,14.30
2019-02-20T02:14:24.705Z,10.85
2019-02-20T02:16:52.916Z,8.98
2019-02-20T02:19:21.336Z,7.37
2019-02-20T02:21:49.518Z,5.53
2019-02-20T02:24:17.744Z,13.60
2019-02-20T02:26:46.090Z,10.75
2019-02-20T02:29:14.432Z,10.43
2019-02-20T02:31:42.653Z,11.40
2019-02-20T02:34:10.907Z,11.97
2019-02-20T02:36:39.135Z,12.33
2019-02-20T02:39:07.333Z,9.03
2019-02-20T02:41:35.555Z,13.38
2019-02-20T02:44:03.815Z,15.88
2019-02-20T02:46:31.959Z,14.87
2019-02-20T02:49:00.122Z,23.30
2019-02-20T02:51:28.369Z,11.85
2019-02-20T02:53:56.922Z,11.20
2019-02-20T02:56:25.422Z,14.78
2019-02-20T02:58:53.588Z,10.95
2019-02-20T03:01:21.747Z,18.42
2019-02-20T03:03:49.927Z,11.35
2019-02-20T03:06:18.426Z,18.62
2019-02-20T03:08:46.682Z,16.60
2019-02-20T03:11:14.833Z,16.60
2019-02-20T03:13:43.530Z,12.33
2019-02-20T03:16:11.806Z,21.50
2019-02-20T03:18:40.068Z,11.30
2019-02-20T03:21:08.470Z,18.50
2019-02-20T03:23:40.158Z,15.90
2019-02-20T03:26:06.589Z,16.67
2019-02-20T03:28:34.978Z,15.18
2019-02-20T03:31:03.177Z,13.55
2019-02-20T03:33:31.745Z,13.53
2019-02-20T03:35:59.852Z,10.18
2019-02-20T03:38:30.539Z,15.28
2019-02-20T03:40:58.201Z,13.98
2019-02-20T03:43:26.468Z,19.42
2019-02-20T03:45:54.677Z,21.45
2019-02-20T03:48:22.915Z,19.70
2019-02-20T03:50:51.213Z,22.15
2019-02-20T03:53:19.393Z,21.48
2019-02-20T03:55:47.588Z,13.53
2019-02-20T03:58:15.737Z,18.77
2019-02-20T04:00:43.917Z,15.58
2019-02-20T04:03:12.216Z,21.75
2019-02-20T04:05:40.377Z,20.17
2019-02-20T04:08:08.521Z,16.05
2019-02-20T04:10:36.677Z,13.28
2019-02-20T04:13:04.757Z,17.67
2019-02-20T04:15:32.912Z,17.87
2019-02-20T04:18:01.761Z,23.60
2019-02-20T04:20:30.015Z,22.20
2019-02-20T04:22:58.179Z,15.85
2019-02-20T04:25:26.390Z,15.58
2019-02-20T04:27:54.628Z,13.32
2019-02-20T04:30:22.814Z,13.40
2019-02-20T04:32:51.169Z,18.10
2019-02-20T04:35:19.561Z,13.03
2019-02-20T04:37:47.712Z,21.17
2019-02-20T04:40:16.048Z,20.65
2019-02-20T04:42:44.354Z,16.10
2019-02-20T04:45:12.542Z,15.98
2019-02-20T04:47:40.791Z,15.38
2019-02-20T04:50:09.617Z,20.23
2019-02-20T04:52:37.793Z,18.57
2019-02-20T04:55:06.501Z,18.80
2019-02-20T04:57:34.674Z,9.65
2019-02-20T05:00:02.910Z,14.35
2019-02-20T05:02:31.198Z,17.07
2019-02-20T05:04:59.438Z,17.15
2019-02-20T05:07:27.718Z,13.70
2019-02-20T05:09:55.877Z,19.82
2019-02-20T05:12:24.180Z,15.90
2019-02-20T05:14:52.373Z,18.73
2019-02-20T05:17:20.546Z,19.55
2019-02-20T05:19:48.738Z,18.12
2019-02-20T05:22:16.889Z,14.87
2019-02-20T05:24:45.178Z,16.00
2019-02-20T05:27:13.403Z,18.42
2019-02-20T05:29:41.662Z,24.37
2019-02-20T05:32:09.911Z,23.60
2019-02-20T05:34:38.170Z,23.52
2019-02-20T05:37:06.486Z,20.32
2019-02-20T05:39:35.124Z,19.10
2019-02-20T05:42:03.372Z,20.77
2019-02-20T05:44:31.578Z,15.38
2019-02-20T05:47:01.330Z,20.85
2019-02-20T05:49:29.504Z,20.40
2019-02-20T05:51:57.820Z,17.98
2019-02-20T05:54:34.165Z,14.40
2019-02-20T05:56:56.040Z,18.67
2019-02-20T05:59:24.349Z,11.97
2019-02-20T06:01:52.630Z,17.55
2019-02-20T06:04:20.840Z,15.48
2019-02-20T06:06:49.064Z,17.80
2019-02-20T06:09:17.258Z,19.07
2019-02-20T06:11:46.127Z,17.98
2019-02-20T06:14:14.315Z,17.32
2019-02-20T06:16:42.795Z,17.77
2019-02-20T06:19:11.093Z,14.35
2019-02-20T06:21:39.306Z,13.13
2019-02-20T06:24:07.470Z,16.55
2019-02-20T06:26:35.651Z,20.62
2019-02-20T06:29:03.822Z,16.90
2019-02-20T06:31:32.059Z,15.40
2019-02-20T06:34:00.244Z,15.95
2019-02-20T06:36:28.418Z,20.70
2019-02-20T06:38:56.611Z,17.85
2019-02-20T06:41:24.745Z,16.30
2019-02-20T06:43:53.149Z,14.15
2019-02-20T06:46:21.292Z,12.33
2019-02-20T06:48:49.556Z,15.75
2019-02-20T06:51:17.722Z,13.25
2019-02-20T06:53:45.907Z,18.92
2019-02-20T06:56:14.084Z,21.23
2019-02-20T06:58:42.220Z,15.50
2019-02-20T07:01:10.401Z,13.48
2019-02-20T07:03:38.590Z,17.85
2019-02-20T07:06:56.906Z,14.23
2019-02-20T07:09:55.451Z,23.95
2019-02-20T07:12:50.576Z,19.23
2019-02-20T07:16:14.617Z,14.47
2019-02-20T07:19:17.040Z,20.43
2019-02-20T07:22:23.336Z,16.23
2019-02-20T07:25:08.590Z,13.05
2019-02-20T07:28:10.245Z,16.48
2019-02-20T07:30:38.445Z,19.40
2019-02-20T07:33:06.691Z,17.75
2019-02-20T07:35:34.958Z,12.82
2019-02-20T07:38:03.216Z,24.80
2019-02-20T07:40:31.453Z,19.75
2019-02-20T07:42:59.618Z,15.83
2019-02-20T07:45:27.816Z,16.77
2019-02-20T07:47:55.966Z,14.98
2019-02-20T07:50:24.126Z,13.40
2019-02-20T07:52:52.762Z,22.22
2019-02-20T07:55:20.935Z,18.92
2019-02-20T07:57:49.142Z,24.05
2019-02-20T08:00:17.406Z,17.23
2019-02-20T08:02:45.596Z,16.27
2019-02-20T08:05:13.884Z,16.35
2019-02-20T08:07:42.028Z,18.73
2019-02-20T08:10:11.475Z,18.77
2019-02-20T08:12:39.616Z,16.05
2019-02-20T08:15:09.052Z,22.30
2019-02-20T08:17:37.250Z,17.40
2019-02-20T08:20:05.686Z,34.98
2019-02-20T08:22:33.868Z,16.82
2019-02-20T08:25:02.169Z,15.00
2019-02-20T08:27:30.320Z,19.98
2019-02-20T08:29:58.633Z,15.72
2019-02-20T08:32:26.813Z,18.05
2019-02-20T08:34:54.973Z,19.90
2019-02-20T08:37:23.402Z,11.45
2019-02-20T08:39:51.595Z,18.55
2019-02-20T08:42:19.867Z,15.40
2019-02-20T08:44:48.037Z,18.15
2019-02-20T08:47:16.236Z,19.02
2019-02-20T08:49:44.378Z,17.60
2019-02-20T08:52:12.506Z,17.73
2019-02-20T08:54:40.789Z,11.30
2019-02-20T08:57:08.905Z,14.00
2019-02-20T08:59:37.084Z,18.70
2019-02-20T09:02:05.335Z,14.35
2019-02-20T09:04:33.534Z,10.53
2019-02-20T09:07:01.704Z,18.45
2019-02-20T09:09:29.906Z,16.27
2019-02-20T09:11:58.126Z,13.32
2019-02-20T09:14:26.328Z,16.40
2019-02-20T09:16:54.874Z,14.58
2019-02-20T09:19:23.088Z,15.72
2019-02-20T09:21:51.406Z,13.38
2019-02-20T09:24:19.551Z,19.62
2019-02-20T09:26:47.749Z,15.72
2019-02-20T09:29:15.907Z,17.02
2019-02-20T09:31:44.040Z,20.92
2019-02-20T09:34:12.319Z,17.30
2019-02-20T09:36:40.505Z,14.50
2019-02-20T09:39:37.755Z,14.33
2019-02-20T09:42:08.219Z,10.58
2019-02-20T09:44:47.443Z,12.58
2019-02-20T09:47:15.583Z,20.72
2019-02-20T09:49:43.703Z,9.68
2019-02-20T09:52:11.935Z,18.73
2019-02-20T09:54:40.130Z,10.45
2019-02-20T09:57:08.390Z,11.43
2019-02-20T09:59:36.596Z,13.88
2019-02-20T10:02:04.787Z,11.35
2019-02-20T10:04:32.976Z,14.50
2019-02-20T10:07:01.869Z,10.32
2019-02-20T10:09:30.229Z,13.68
2019-02-20T10:11:58.482Z,10.68
2019-02-20T10:14:26.641Z,18.02
2019-02-20T10:16:54.883Z,12.40
2019-02-20T10:19:23.359Z,11.12
2019-02-20T10:21:51.516Z,8.80
2019-02-20T10:24:19.713Z,9.08
2019-02-20T10:26:47.911Z,9.88
2019-02-20T10:29:16.239Z,7.65
2019-02-20T10:31:44.469Z,7.67
2019-02-20T10:34:12.674Z,6.08
2019-02-20T10:36:40.869Z,11.08
2019-02-20T10:39:09.092Z,13.70
2019-02-20T10:41:37.301Z,7.45
2019-02-20T10:44:05.504Z,6.15
2019-02-20T10:46:33.927Z,15.28
2019-02-20T10:49:02.109Z,13.53
2019-02-20T10:51:30.345Z,9.63
2019-02-20T10:53:58.609Z,9.63
2019-02-20T10:56:26.853Z,9.55
2019-02-20T10:58:58.840Z,7.10
2019-02-20T11:01:27.029Z,11.08
2019-02-20T11:03:55.204Z,8.18
2019-02-20T11:06:23.354Z,17.52
2019-02-20T11:08:51.523Z,7.67
2019-02-20T11:11:19.769Z,9.00
2019-02-20T11:13:48.046Z,5.87
2019-02-20T11:16:16.412Z,8.55
2019-02-20T11:18:44.652Z,7.37
2019-02-20T11:21:12.992Z,8.88
2019-02-20T11:23:41.182Z,10.32
2019-02-20T11:26:17.581Z,12.50
2019-02-20T11:28:39.292Z,10.30
2019-02-20T11:31:07.722Z,11.33
2019-02-20T11:33:35.890Z,7.12
2019-02-20T11:36:04.076Z,10.98
2019-02-20T11:38:32.249Z,9.13
2019-02-20T11:41:00.392Z,11.10
2019-02-20T11:43:28.598Z,8.18
2019-02-20T11:45:56.715Z,6.53
2019-02-20T11:48:24.808Z,7.62
2019-02-20T11:50:52.959Z,4.70
2019-02-20T11:53:21.229Z,6.08
2019-02-20T11:55:49.425Z,7.45
2019-02-20T11:58:17.598Z,10.00
2019-02-20T12:00:45.818Z,4.97
2019-02-20T12:03:13.991Z,4.25
2019-02-20T12:05:43.336Z,9.33
2019-02-20T12:08:11.681Z,6.12
2019-02-20T12:10:40.149Z,5.00
2019-02-20T12:13:08.475Z,6.67
2019-02-20T12:15:36.672Z,7.60
2019-02-20T12:18:04.895Z,6.12
2019-02-20T12:20:33.142Z,12.80
2019-02-20T12:23:01.459Z,6.47
2019-02-20T12:25:29.590Z,10.82
2019-02-20T12:27:57.912Z,4.87
2019-02-20T12:30:26.222Z,5.50
2019-02-20T12:32:54.411Z,8.70
2019-02-20T12:35:22.600Z,7.25
2019-02-20T12:37:50.750Z,8.10
2019-02-20T12:40:18.939Z,6.50
2019-02-20T12:42:47.238Z,8.60
2019-02-20T12:45:15.502Z,5.45
2019-02-20T12:47:44.022Z,6.60
2019-02-20T12:50:12.401Z,8.20
2019-02-20T12:52:40.685Z,10.05
2019-02-20T12:55:09.082Z,7.25
2019-02-20T12:57:37.311Z,4.92
2019-02-20T13:00:06.217Z,6.05
2019-02-20T13:02:36.044Z,8.05
2019-02-20T13:05:04.807Z,4.28
2019-02-20T13:07:33.278Z,1.27
2019-02-20T13:10:01.510Z,12.23
2019-02-20T13:12:30.552Z,8.40
2019-02-20T13:14:58.815Z,11.03
2019-02-20T13:17:27.067Z,7.25
2019-02-20T13:19:56.750Z,17.23
2019-02-20T13:22:24.997Z,5.28
2019-02-20T13:24:53.190Z,12.65
2019-02-20T13:27:23.022Z,6.75
2019-02-20T13:29:51.476Z,7.97
2019-02-20T13:32:19.775Z,6.65
2019-02-20T13:34:48.050Z,4.55
2019-02-20T13:37:16.407Z,11.70
2019-02-20T13:39:44.730Z,6.60
2019-02-20T13:42:12.883Z,8.90
2019-02-20T13:44:41.096Z,8.35
2019-02-20T13:47:09.314Z,8.55
2019-02-20T13:49:37.554Z,17.60
2019-02-20T13:52:05.777Z,13.90
2019-02-20T13:54:35.582Z,8.05
2019-02-20T13:57:28.393Z,7.67
2019-02-20T13:59:56.644Z,10.50
2019-02-20T14:02:24.885Z,12.75
2019-02-20T14:04:53.134Z,7.25
2019-02-20T14:07:21.560Z,6.37
2019-02-20T14:09:49.911Z,9.53
2019-02-20T14:12:18.499Z,6.83
2019-02-20T14:14:46.770Z,9.55
2019-02-20T14:17:15.046Z,10.63
2019-02-20T14:19:43.305Z,10.63
2019-02-20T14:22:11.623Z,13.08
2019-02-20T14:24:39.945Z,11.90
2019-02-20T14:27:10.741Z,9.35
2019-02-20T14:29:38.094Z,10.28
2019-02-20T14:32:06.320Z,9.95
2019-02-20T14:34:34.527Z,8.55
2019-02-20T14:37:03.096Z,12.43
2019-02-20T14:39:31.349Z,9.18
2019-02-20T14:42:00.987Z,12.23
2019-02-20T14:44:29.456Z,11.53
2019-02-20T14:46:57.646Z,11.40
2019-02-20T14:49:25.916Z,11.93
2019-02-20T14:51:54.143Z,15.70
2019-02-20T14:54:22.368Z,8.38
2019-02-20T14:56:50.580Z,9.88
2019-02-20T14:59:18.828Z,12.28
2019-02-20T15:01:47.010Z,11.30
2019-02-20T15:04:15.239Z,12.73
2019-02-20T15:06:43.482Z,9.68
2019-02-20T15:09:11.720Z,9.18
2019-02-20T15:11:39.963Z,8.63
2019-02-20T15:14:08.432Z,12.75
2019-02-20T15:16:36.668Z,10.00
2019-02-20T15:19:05.445Z,11.80
2019-02-20T15:21:33.640Z,13.43
2019-02-20T15:24:01.937Z,6.22
2019-02-20T15:26:30.289Z,8.15
2019-02-20T15:28:58.583Z,9.30
2019-02-20T15:31:33.805Z,6.95
2019-02-20T15:33:59.033Z,11.57
2019-02-20T15:36:27.483Z,15.65
2019-02-20T15:38:55.821Z,12.95
2019-02-20T15:41:24.145Z,8.30
2019-02-20T15:43:52.591Z,11.83
2019-02-20T15:46:21.030Z,15.00
2019-02-20T15:48:49.465Z,13.75
2019-02-20T15:51:17.707Z,12.95
2019-02-20T15:53:46.060Z,10.72
2019-02-20T15:56:14.418Z,10.55
2019-02-20T15:58:42.898Z,9.05
2019-02-20T16:01:11.643Z,11.28
2019-02-20T16:03:40.032Z,13.03
2019-02-20T16:06:08.243Z,11.63
2019-02-20T16:08:36.718Z,12.15
2019-02-20T16:11:14.544Z,11.93
2019-02-20T16:13:42.982Z,13.85
2019-02-20T16:16:11.380Z,8.80
2019-02-20T16:18:39.684Z,12.30
2019-02-20T16:21:08.175Z,16.90
2019-02-20T16:23:36.487Z,14.40
2019-02-20T16:26:04.754Z,9.58
2019-02-20T16:28:34.103Z,18.00
2019-02-20T16:31:02.652Z,15.80
2019-02-20T16:33:31.089Z,10.30
2019-02-20T16:35:59.583Z,14.15
2019-02-20T16:38:28.424Z,10.95
2019-02-20T16:40:57.262Z,14.25
2019-02-20T16:43:25.823Z,13.15
2019-02-20T16:45:54.515Z,14.20
2019-02-20T16:48:22.823Z,10.78
2019-02-20T16:50:52.148Z,10.72
2019-02-20T16:53:20.681Z,10.78
2019-02-20T16:55:49.371Z,9.28
2019-02-20T16:58:17.993Z,14.87
2019-02-20T17:00:47.376Z,12.25
2019-02-20T17:03:16.939Z,14.80
2019-02-20T17:05:45.420Z,15.47
2019-02-20T17:08:14.565Z,13.90
2019-02-20T17:10:43.494Z,14.03
2019-02-20T17:13:12.383Z,11.68
2019-02-20T17:15:41.387Z,13.03
2019-02-20T17:18:10.232Z,11.18
2019-02-20T17:20:39.512Z,18.32
2019-02-20T17:23:08.460Z,21.50
2019-02-20T17:25:36.975Z,21.02
2019-02-20T17:28:07.391Z,29.05
2019-02-20T17:30:36.102Z,17.00
2019-02-20T17:33:04.657Z,26.62
2019-02-20T17:35:33.656Z,19.62
2019-02-20T17:38:03.137Z,13.58
2019-02-20T17:40:31.862Z,20.82
2019-02-20T17:43:00.589Z,13.45
2019-02-20T17:45:29.654Z,14.85
2019-02-20T17:47:59.201Z,11.75
2019-02-20T17:50:27.790Z,17.63
2019-02-20T17:52:56.477Z,18.95
2019-02-20T17:55:24.919Z,17.85
2019-02-20T17:57:53.579Z,15.50
2019-02-20T18:00:25.738Z,14.87
2019-02-20T18:02:55.404Z,12.43
2019-02-20T18:05:24.125Z,15.73
2019-02-20T18:07:52.740Z,23.18
2019-02-20T18:10:21.723Z,20.25
2019-02-20T18:12:50.809Z,21.40
2019-02-20T18:15:19.398Z,15.13
2019-02-20T18:17:48.285Z,13.65
2019-02-20T18:20:17.223Z,16.57
2019-02-20T18:22:46.859Z,20.20
2019-02-20T18:25:16.368Z,14.93
2019-02-20T18:27:45.716Z,24.80
2019-02-20T18:30:15.400Z,19.70
2019-02-20T18:32:43.941Z,14.57
2019-02-20T18:35:13.422Z,13.35
2019-02-20T18:37:42.917Z,14.65
2019-02-20T18:40:13.984Z,13.80
2019-02-20T18:42:44.567Z,13.38
2019-02-20T18:47:42.742Z,17.45
2019-02-20T18:50:12.780Z,16.00
2019-02-20T18:52:43.239Z,13.35
2019-02-20T18:57:40.308Z,17.62
2019-02-20T19:00:12.239Z,14.95
2019-02-20T19:02:41.751Z,16.65
2019-02-20T19:05:11.091Z,13.38
2019-02-20T19:07:40.266Z,12.25
2019-02-20T19:10:13.427Z,18.92
2019-02-20T19:13:34.361Z,20.92
2019-02-20T19:16:46.918Z,14.10
2019-02-20T19:19:40.649Z,18.42
2019-02-20T19:22:57.355Z,24.52
2019-02-20T19:26:07.596Z,14.63
2019-02-20T19:29:04.374Z,20.23
2019-02-20T19:32:10.520Z,18.30
2019-02-20T19:35:16.840Z,13.38
2019-02-20T19:38:26.806Z,11.08
2019-02-20T19:41:25.117Z,17.82
2019-02-20T19:44:19.558Z,18.25
2019-02-20T19:47:16.290Z,20.68
2019-02-20T19:50:33.086Z,17.77
2019-02-20T19:53:27.972Z,16.52
2019-02-20T19:56:37.869Z,18.87
2019-02-20T19:59:40.832Z,28.13
2019-02-20T20:02:46.294Z,42.13
2019-02-20T20:05:37.181Z,30.90
2019-02-20T20:08:27.251Z,20.50
2019-02-20T20:11:27.001Z,29.65
2019-02-20T20:14:20.068Z,23.20
2019-02-20T20:17:08.267Z,23.65
2019-02-20T20:20:27.119Z,21.50
2019-02-20T20:23:32.840Z,29.75
2019-02-20T20:26:37.171Z,20.80
2019-02-20T20:29:42.596Z,22.37
2019-02-20T20:32:37.680Z,21.80
2019-02-20T20:35:41.141Z,13.15
2019-02-20T20:38:40.076Z,16.82
2019-02-20T20:41:45.640Z,16.20
2019-02-20T20:44:39.442Z,10.80
2019-02-20T20:47:40.802Z,16.23
2019-02-20T20:50:28.998Z,12.90
2019-02-20T20:53:18.315Z,14.05
2019-02-20T20:56:18.885Z,21.23
2019-02-20T20:59:49.250Z,26.82
2019-02-20T21:02:25.542Z,33.15
2019-02-20T21:05:50.495Z,24.85
2019-02-20T21:08:49.813Z,21.05
2019-02-20T21:12:17.235Z,28.10
2019-02-20T21:14:58.935Z,26.27
2019-02-20T21:17:59.779Z,19.77
2019-02-20T21:20:41.348Z,17.02
2019-02-20T21:23:45.660Z,17.20
2019-02-20T21:26:50.440Z,13.50
2019-02-20T21:29:40.046Z,28.73
2019-02-20T21:32:42.972Z,21.55
2019-02-20T21:35:23.890Z,14.63
2019-02-20T21:38:54.394Z,17.85
2019-02-20T21:42:02.249Z,21.48
2019-02-20T21:45:14.388Z,10.43
2019-02-20T21:48:10.764Z,16.80
2019-02-20T21:51:06.579Z,16.90
2019-02-20T21:53:59.376Z,17.75
2019-02-20T21:56:58.951Z,16.37
2019-02-20T22:00:03.709Z,22.48
2019-02-20T22:02:56.477Z,11.00
2019-02-20T22:05:41.813Z,18.60
2019-02-20T22:08:42.029Z,25.32
2019-02-20T22:11:20.976Z,25.23
2019-02-20T22:14:27.266Z,23.85
2019-02-20T22:17:27.178Z,14.68
2019-02-20T22:20:21.246Z,22.13
2019-02-20T22:23:27.192Z,18.95
2019-02-20T22:26:24.032Z,21.93
2019-02-20T22:28:59.830Z,24.27
2019-02-20T22:31:51.585Z,19.80
2019-02-20T22:34:58.070Z,22.17
2019-02-20T22:37:51.278Z,22.95
2019-02-20T22:40:51.571Z,28.42
2019-02-20T22:44:04.835Z,31.90
2019-02-20T22:46:57.797Z,22.75
2019-02-20T22:49:56.432Z,28.32
2019-02-20T22:52:51.153Z,18.12
2019-02-20T22:55:54.884Z,30.35
2019-02-20T22:58:36.173Z,25.52
2019-02-20T23:01:26.328Z,27.60
2019-02-20T23:04:22.532Z,29.55
2019-02-20T23:07:23.915Z,26.27
2019-02-20T23:10:27.569Z,17.85
2019-02-20T23:13:38.599Z,27.00
2019-02-20T23:16:06.975Z,26.65
2019-02-20T23:18:35.167Z,20.52
2019-02-20T23:21:03.376Z,19.40
2019-02-20T23:23:31.501Z,29.65
2019-02-20T23:25:59.909Z,22.02
2019-02-20T23:28:28.085Z,23.45
2019-02-20T23:30:56.315Z,28.12
2019-02-20T23:33:24.582Z,29.40
2019-02-20T23:35:52.781Z,23.80
2019-02-20T23:38:21.046Z,27.35
2019-02-20T23:40:49.254Z,24.95
2019-02-20T23:43:17.460Z,30.05
2019-02-20T23:45:45.739Z,21.90
2019-02-20T23:48:14.015Z,25.72
2019-02-20T23:50:42.245Z,27.07
2019-02-20T23:53:10.516Z,20.12
2019-02-20T23:55:38.836Z,26.27
2019-02-20T23:58:06.973Z,31.75
